Main page
METAR-TAF:

METAR-TAF

Airports :

St. Clair County International Airport

Port Huron, Michigan, United States

latitude: 42-55N, longitude: 082-32W, elevation: 198 m

Current weather observation

The report was made 58 minutes ago, at 15:55 UTC
Wind 7 kt from the North/Northeast, varying between North and East/Northeast
Temperature 20°C
Humidity 49%
Pressure 1023 hPa
Visibility: 16.1 km
Clear sky

METAR: KPHN 151555Z AUTO 03007KT 360V060 10SM CLR 20/09 A3021 RMK AO2

Time: 12:53 (16:53 UTC)


TAF: missing

Weather observations and forecasts of more than 4000 airports (METAR and TAF reports).

The available stations are represented by yellow and red dots on the map.

Hover mouse over dot to see the name of the station.

Then click to see weather observations and forecasts.

To change the map : click on the green buttons with a black cross to zoom in, on the green button with a dash to zoom out, or on the green arrows for adjacent maps.


METAR-TAF: